Milford, Maine
Current Conditions -  °F | °C
As of 4:53 AM on Thursday 27 Nov 2014 (Local Time) from KBGR Reporting Station
Light Snow Light Snow  
Wind Chill: 13°   Ceiling: 1200
Heat Index: 28°   Visibility: 0.75mi
Dew Point: 26°   Wind: 28mph
Humidity: 92%   Direction: 350°N
Pressure: 29.7"   Gusts: 32mph
Location:  44.95°N, 68.64°W
Report Text: KBGR 270953Z 35024G28KT 3/4SM R15/P6000FT -SN BR VV012 M02/M03 A2970 RMK AO2 PK WND 35035/0903 SLP061 P0000 T10221033 $
Loading
Personal Weather Stations






























Interactive Weather Map New forecast layout! Learn more

10-Day Weather Forecast

Advertisements
Track Severe Weather on mobile